Time;durP1;ratioP1;P1;durP2;ratioP2;P2;SDS_P1;SDS_P2;PMS_P1;PMS_P2;Temp;Humidity;BMP_temperature;BMP_pressure;BME280_temperature;BME280_humidity;BME280_pressure;Samples;Min_cycle;Max_cycle;Signal;HPM_P1;HPM_P2
2022/03/08 00:00:51;;;;;;;16.33;10.23;;;5.90;38.90;;;;;;4973290;28;20027;-77
2022/03/08 00:03:18;;;;;;;19.65;9.70;;;5.90;39.10;;;;;;4957454;28;20031;-83
2022/03/08 00:05:44;;;;;;;19.17;10.15;;;5.90;39.10;;;;;;4960028;28;20027;-77
2022/03/08 00:08:10;;;;;;;16.20;10.07;;;5.90;39.40;;;;;;4958303;29;20037;-79
2022/03/08 00:10:36;;;;;;;21.50;10.40;;;5.90;39.70;;;;;;4957693;28;20023;-77
2022/03/08 00:13:02;;;;;;;17.48;10.55;;;5.90;40.00;;;;;;4957819;29;20038;-80
2022/03/08 00:15:28;;;;;;;15.18;9.43;;;5.90;40.10;;;;;;4958275;28;20094;-82
2022/03/08 00:17:55;;;;;;;28.13;10.27;;;5.80;40.10;;;;;;4949291;28;20058;-81
2022/03/08 00:20:21;;;;;;;15.80;9.68;;;5.90;40.30;;;;;;4962400;28;20034;-76
2022/03/08 00:22:48;;;;;;;17.23;10.20;;;5.90;40.30;;;;;;4952109;29;20027;-81
2022/03/08 00:25:14;;;;;;;17.67;10.85;;;5.80;40.30;;;;;;4957871;28;20031;-83
2022/03/08 00:27:47;;;;;;;15.52;10.23;;;5.80;40.50;;;;;;4957882;28;20039;-82
2022/03/08 00:30:15;;;;;;;16.73;9.52;;;5.90;40.50;;;;;;4956982;28;20034;-75
2022/03/08 00:32:42;;;;;;;16.77;9.75;;;5.80;40.70;;;;;;4957313;28;20031;-76
2022/03/08 00:35:08;;;;;;;17.40;9.88;;;5.90;40.70;;;;;;4957700;28;20019;-77
2022/03/08 00:37:34;;;;;;;14.50;9.20;;;5.90;40.80;;;;;;4958025;28;20406;-73
2022/03/08 00:40:00;;;;;;;18.98;10.40;;;5.80;40.70;;;;;;4958268;28;20038;-81
2022/03/08 00:42:25;;;;;;;16.63;9.60;;;5.90;40.90;;;;;;4957844;28;20499;-77
2022/03/08 00:44:51;;;;;;;18.10;9.95;;;5.90;40.80;;;;;;4957396;29;20504;-78
2022/03/08 00:47:18;;;;;;;18.23;9.85;;;5.90;41.00;;;;;;4956808;28;20035;-76
2022/03/08 00:49:43;;;;;;;16.30;10.13;;;5.90;41.10;;;;;;4969584;28;20028;-81
2022/03/08 00:52:10;;;;;;;18.85;10.90;;;5.90;40.90;;;;;;4947763;29;20094;-77
2022/03/08 00:54:37;;;;;;;16.35;9.85;;;5.90;41.10;;;;;;4957246;28;20107;-78
2022/03/08 00:57:04;;;;;;;18.02;9.43;;;5.90;40.90;;;;;;4955052;28;20386;-79
2022/03/08 00:59:30;;;;;;;13.60;8.75;;;5.90;40.90;;;;;;4957158;28;20031;-81
2022/03/08 01:01:57;;;;;;;17.73;9.68;;;6.00;40.70;;;;;;4957190;28;20035;-76
2022/03/08 01:04:23;;;;;;;25.08;9.90;;;6.00;40.80;;;;;;4957155;29;20031;-78
2022/03/08 01:06:49;;;;;;;13.55;8.45;;;6.00;40.80;;;;;;4957228;28;20116;-80
2022/03/08 01:09:15;;;;;;;16.40;9.05;;;6.00;40.60;;;;;;4957521;28;20030;-85
2022/03/08 01:11:42;;;;;;;19.25;9.93;;;6.00;40.60;;;;;;4957102;28;20390;-78
2022/03/08 01:14:09;;;;;;;16.55;10.30;;;6.00;40.60;;;;;;4972041;28;20027;-80
2022/03/08 01:16:36;;;;;;;15.95;9.10;;;6.00;40.90;;;;;;4957003;29;20082;-76
2022/03/08 01:19:04;;;;;;;14.27;9.48;;;6.00;41.00;;;;;;4956757;28;20484;-79
2022/03/08 01:21:30;;;;;;;15.88;9.65;;;6.00;40.80;;;;;;4955506;28;20058;-73
2022/03/08 01:23:56;;;;;;;12.50;8.00;;;6.00;40.60;;;;;;4962710;28;20015;-79
2022/03/08 01:26:22;;;;;;;14.35;8.93;;;6.00;40.50;;;;;;4971886;28;20118;-77
2022/03/08 01:28:48;;;;;;;16.15;10.30;;;6.00;40.40;;;;;;4978056;28;20035;-74
2022/03/08 01:31:14;;;;;;;19.05;9.85;;;6.00;40.10;;;;;;4975428;28;20077;-76
2022/03/08 01:33:40;;;;;;;17.88;10.27;;;6.00;39.90;;;;;;4956276;28;20544;-80
2022/03/08 01:36:06;;;;;;;16.83;10.13;;;6.00;39.70;;;;;;4955953;29;20023;-81
2022/03/08 01:38:32;;;;;;;18.58;10.70;;;6.10;39.50;;;;;;4971289;28;20066;-80
2022/03/08 01:40:58;;;;;;;19.63;10.57;;;6.10;39.40;;;;;;4972262;28;20385;-79
2022/03/08 01:43:24;;;;;;;18.70;10.50;;;6.10;39.30;;;;;;4956371;28;20027;-81
2022/03/08 01:45:51;;;;;;;15.48;9.95;;;6.10;39.30;;;;;;4956298;28;20031;-80
2022/03/08 01:48:16;;;;;;;18.33;10.68;;;6.10;39.30;;;;;;4945866;29;20110;-75
2022/03/08 01:50:42;;;;;;;20.65;11.85;;;6.10;39.30;;;;;;4952098;29;20054;-76
2022/03/08 01:53:08;;;;;;;16.27;10.32;;;6.10;39.30;;;;;;4950965;29;20420;-80
2022/03/08 01:55:34;;;;;;;17.08;10.68;;;6.10;39.20;;;;;;4956397;28;20039;-73
2022/03/08 01:58:00;;;;;;;17.13;11.00;;;6.10;39.20;;;;;;4956399;28;20047;-83
2022/03/08 02:00:30;;;;;;;18.48;11.23;;;6.10;39.20;;;;;;4956000;28;20500;-80
2022/03/08 02:02:57;;;;;;;16.83;10.93;;;6.10;39.20;;;;;;4956166;29;20034;-82
2022/03/08 02:05:24;;;;;;;18.17;11.27;;;6.10;39.80;;;;;;4956323;28;20066;-77
2022/03/08 02:07:50;;;;;;;15.95;10.43;;;6.10;39.30;;;;;;4956398;29;20113;-83
2022/03/08 02:10:16;;;;;;;17.25;10.80;;;6.00;39.00;;;;;;4956400;28;20066;-80
2022/03/08 02:12:42;;;;;;;16.73;10.57;;;6.00;39.00;;;;;;4970929;28;20019;-80
2022/03/08 02:15:20;;;;;;;16.00;10.45;;;5.90;38.90;;;;;;4956483;28;20023;-81
2022/03/08 02:17:46;;;;;;;25.83;10.70;;;5.90;39.00;;;;;;4955818;28;20434;-82
2022/03/08 02:20:14;;;;;;;16.77;10.88;;;5.90;38.80;;;;;;4970746;28;20106;-80
2022/03/08 02:22:41;;;;;;;16.63;10.88;;;5.80;38.90;;;;;;4955628;28;20459;-80
2022/03/08 02:25:08;;;;;;;20.02;11.80;;;5.70;38.90;;;;;;4970765;28;20481;-82
2022/03/08 02:27:38;;;;;;;19.83;11.40;;;5.60;38.90;;;;;;4955820;29;20027;-76
2022/03/08 02:30:04;;;;;;;20.15;11.25;;;5.50;38.80;;;;;;4955882;28;20023;-80
2022/03/08 02:32:29;;;;;;;16.40;10.95;;;5.40;38.80;;;;;;4955334;29;20457;-80
2022/03/08 02:34:55;;;;;;;22.17;12.10;;;5.30;38.90;;;;;;4955718;29;20098;-74
2022/03/08 02:37:21;;;;;;;18.48;11.25;;;5.20;39.10;;;;;;4955530;28;20035;-82
2022/03/08 02:39:47;;;;;;;17.88;11.32;;;5.10;39.10;;;;;;4955538;29;20031;-81
2022/03/08 02:42:12;;;;;;;21.02;11.85;;;5.00;39.10;;;;;;4955271;29;20038;-76
2022/03/08 02:44:38;;;;;;;18.02;11.02;;;4.90;39.30;;;;;;4955398;29;20031;-74
2022/03/08 02:47:05;;;;;;;18.33;12.15;;;4.80;39.50;;;;;;4955270;29;20110;-81
2022/03/08 02:49:32;;;;;;;24.52;11.65;;;4.70;39.70;;;;;;4970274;28;20408;-78
2022/03/08 02:51:58;;;;;;;26.52;13.82;;;4.60;39.70;;;;;;4955312;29;20166;-80
2022/03/08 02:54:24;;;;;;;20.67;12.88;;;4.50;40.10;;;;;;4966272;28;20111;-77
2022/03/08 02:56:51;;;;;;;20.35;12.35;;;4.40;40.10;;;;;;4935538;29;20028;-80
2022/03/08 02:59:23;;;;;;;22.58;13.45;;;4.40;40.40;;;;;;4936425;29;20038;-80
2022/03/08 03:01:49;;;;;;;20.35;12.75;;;4.20;40.50;;;;;;4953566;29;20030;-75
2022/03/08 03:04:15;;;;;;;19.58;11.90;;;4.20;40.50;;;;;;4955142;29;20033;-77
2022/03/08 03:06:43;;;;;;;23.10;12.68;;;4.10;40.70;;;;;;4953896;28;20031;-80
2022/03/08 03:09:08;;;;;;;23.20;12.98;;;4.10;40.80;;;;;;4955254;28;20028;-80
2022/03/08 03:11:34;;;;;;;20.40;12.88;;;4.00;41.00;;;;;;4954914;28;20042;-80
2022/03/08 03:14:00;;;;;;;19.42;12.30;;;4.00;41.00;;;;;;4954535;28;20094;-76
2022/03/08 03:16:27;;;;;;;18.38;11.77;;;3.90;41.10;;;;;;4954715;28;20114;-76
2022/03/08 03:18:53;;;;;;;22.58;12.73;;;3.80;41.10;;;;;;4954723;28;20391;-79
2022/03/08 03:21:18;;;;;;;25.63;15.60;;;3.80;41.30;;;;;;4954887;29;20544;-78
2022/03/08 03:23:44;;;;;;;19.95;12.30;;;3.70;41.80;;;;;;4968860;28;20086;-81
2022/03/08 03:26:10;;;;;;;23.80;14.25;;;3.70;41.70;;;;;;4954656;28;20094;-80
2022/03/08 03:28:35;;;;;;;20.08;12.77;;;3.60;41.90;;;;;;4954610;29;20038;-78
2022/03/08 03:31:01;;;;;;;20.58;13.25;;;3.60;42.00;;;;;;4954400;29;20424;-74
2022/03/08 03:33:27;;;;;;;19.13;11.05;;;3.50;42.00;;;;;;4955145;28;20031;-76
2022/03/08 03:35:52;;;;;;;20.55;11.93;;;3.50;41.90;;;;;;4955297;28;20023;-77
2022/03/08 03:38:18;;;;;;;20.42;11.48;;;3.40;41.80;;;;;;4953871;28;20035;-78
2022/03/08 03:40:44;;;;;;;20.60;11.48;;;3.40;42.00;;;;;;4954244;29;20030;-77
2022/03/08 03:43:11;;;;;;;19.33;11.35;;;3.40;42.10;;;;;;4955178;28;20046;-76
2022/03/08 03:45:37;;;;;;;20.77;12.30;;;3.40;42.20;;;;;;4954635;28;20027;-76
2022/03/08 03:48:03;;;;;;;17.23;10.95;;;3.30;42.20;;;;;;4955139;28;20469;-77
2022/03/08 03:50:29;;;;;;;22.42;12.75;;;3.30;42.30;;;;;;4955296;29;20389;-80
2022/03/08 03:52:54;;;;;;;19.70;11.70;;;3.20;42.50;;;;;;4956047;29;20023;-76
2022/03/08 03:55:20;;;;;;;23.65;12.32;;;3.20;42.50;;;;;;4970555;28;20028;-75
2022/03/08 03:57:46;;;;;;;20.05;10.48;;;3.20;42.80;;;;;;4954765;29;20059;-77
2022/03/08 04:00:14;;;;;;;20.42;12.00;;;3.20;42.70;;;;;;4969899;28;20031;-81
2022/03/08 04:02:40;;;;;;;19.60;11.48;;;3.10;42.90;;;;;;4954570;29;20058;-81
2022/03/08 04:05:07;;;;;;;18.27;10.98;;;3.10;42.90;;;;;;4955023;28;20038;-76
2022/03/08 04:07:33;;;;;;;18.98;11.30;;;3.10;42.90;;;;;;4956114;28;20027;-78
2022/03/08 04:09:59;;;;;;;21.30;12.15;;;3.10;43.00;;;;;;4958152;29;20023;-80
2022/03/08 04:12:24;;;;;;;18.70;11.77;;;3.10;43.00;;;;;;4956380;29;20055;-83
2022/03/08 04:14:50;;;;;;;20.90;11.68;;;3.00;43.20;;;;;;4972303;28;20028;-81
2022/03/08 04:17:16;;;;;;;19.30;11.52;;;3.00;43.30;;;;;;4957675;28;20038;-75
2022/03/08 04:19:43;;;;;;;18.27;10.88;;;3.00;43.30;;;;;;4957911;28;20066;-79
2022/03/08 04:22:09;;;;;;;17.67;10.77;;;3.00;43.30;;;;;;4972937;28;20401;-78
2022/03/08 04:24:35;;;;;;;22.85;11.65;;;3.00;43.40;;;;;;4958044;28;20097;-77
2022/03/08 04:27:01;;;;;;;28.35;11.57;;;2.90;43.40;;;;;;4956538;28;20469;-82
2022/03/08 04:29:27;;;;;;;19.95;12.48;;;2.90;43.40;;;;;;4957343;29;20070;-80
2022/03/08 04:31:53;;;;;;;19.25;11.65;;;2.90;43.60;;;;;;4971569;28;20106;-76
2022/03/08 04:34:19;;;;;;;21.98;12.13;;;2.90;43.80;;;;;;4957326;29;20440;-78
2022/03/08 04:36:45;;;;;;;23.50;13.48;;;2.80;43.70;;;;;;4957591;29;20038;-76
2022/03/08 04:39:10;;;;;;;20.33;12.32;;;2.90;44.00;;;;;;4972586;28;20046;-80
2022/03/08 04:41:36;;;;;;;18.13;11.15;;;2.80;43.90;;;;;;4957757;29;20029;-74
2022/03/08 04:44:02;;;;;;;18.02;10.95;;;2.80;44.00;;;;;;4957639;28;20028;-78
2022/03/08 04:46:28;;;;;;;19.67;11.82;;;2.80;44.10;;;;;;4972640;28;20074;-82
2022/03/08 04:48:55;;;;;;;19.10;11.35;;;2.80;44.30;;;;;;4957375;28;20031;-83
2022/03/08 04:51:21;;;;;;;16.80;10.30;;;2.80;44.50;;;;;;4957085;28;20019;-76
2022/03/08 04:53:47;;;;;;;17.05;10.27;;;2.80;44.40;;;;;;4972094;28;20031;-79
2022/03/08 04:56:12;;;;;;;19.75;11.30;;;2.80;44.40;;;;;;4972427;28;20030;-77
2022/03/08 04:58:38;;;;;;;23.55;11.38;;;2.70;44.40;;;;;;4972284;28;20058;-80
2022/03/08 05:01:05;;;;;;;20.80;11.18;;;2.70;44.60;;;;;;4957258;28;20055;-81
2022/03/08 05:03:31;;;;;;;17.42;10.23;;;2.70;44.60;;;;;;4957261;29;20635;-79
2022/03/08 05:05:57;;;;;;;20.70;10.90;;;2.70;44.50;;;;;;4971869;28;20134;-80
2022/03/08 05:08:23;;;;;;;18.75;11.50;;;2.70;44.60;;;;;;4956610;28;20031;-73
2022/03/08 05:10:49;;;;;;;16.05;10.30;;;2.70;44.80;;;;;;4952654;29;20021;-80
2022/03/08 05:13:17;;;;;;;19.67;10.35;;;2.70;44.80;;;;;;4951128;29;20115;-81
2022/03/08 05:15:47;;;;;;;19.13;10.48;;;2.70;44.90;;;;;;4970531;28;20027;-82
2022/03/08 05:18:12;;;;;;;19.98;10.68;;;2.60;45.00;;;;;;4955388;28;20027;-82
2022/03/08 05:20:38;;;;;;;22.52;10.63;;;2.60;45.10;;;;;;4955709;28;20106;-75
2022/03/08 05:23:04;;;;;;;20.60;11.85;;;2.60;45.20;;;;;;4970381;28;20078;-80
2022/03/08 05:25:30;;;;;;;20.27;11.60;;;2.60;45.10;;;;;;4955370;28;20436;-73
2022/03/08 05:27:56;;;;;;;18.45;10.07;;;2.60;45.30;;;;;;4955976;29;20106;-74
2022/03/08 05:30:22;;;;;;;21.77;10.90;;;2.60;45.30;;;;;;4961409;28;20031;-73
2022/03/08 05:32:48;;;;;;;19.45;10.95;;;2.60;45.40;;;;;;4965577;29;20027;-73
2022/03/08 05:35:14;;;;;;;20.30;10.88;;;2.50;45.50;;;;;;4964396;28;20433;-77
2022/03/08 05:37:39;;;;;;;15.32;9.07;;;2.50;45.60;;;;;;4964020;28;20063;-77
2022/03/08 05:40:07;;;;;;;17.38;10.52;;;2.50;45.70;;;;;;4963282;28;20035;-76
2022/03/08 05:42:33;;;;;;;18.65;9.68;;;2.50;45.70;;;;;;4958003;28;20031;-74
2022/03/08 05:44:58;;;;;;;15.48;9.73;;;2.50;45.90;;;;;;4956424;28;20027;-83
2022/03/08 05:47:24;;;;;;;16.80;10.63;;;2.50;45.90;;;;;;4958573;28;20031;-81
2022/03/08 05:49:50;;;;;;;21.10;10.63;;;2.50;46.00;;;;;;4958028;29;20080;-78
2022/03/08 05:52:16;;;;;;;19.48;10.27;;;2.50;46.10;;;;;;4958171;29;20051;-79
2022/03/08 05:54:41;;;;;;;20.73;9.48;;;2.60;46.20;;;;;;4956048;29;20023;-80
2022/03/08 05:57:07;;;;;;;23.48;10.25;;;2.60;46.20;;;;;;4956407;28;20035;-79
2022/03/08 05:59:33;;;;;;;20.50;11.13;;;2.60;46.20;;;;;;4956477;29;20031;-77
2022/03/08 06:01:59;;;;;;;17.70;8.88;;;2.60;46.60;;;;;;4956316;28;20169;-72
2022/03/08 06:04:24;;;;;;;18.70;9.85;;;2.60;46.50;;;;;;4970800;28;20035;-81
2022/03/08 06:06:50;;;;;;;22.27;9.35;;;2.60;46.60;;;;;;4955332;29;20034;-78
2022/03/08 06:09:16;;;;;;;25.30;11.45;;;2.60;46.70;;;;;;4956174;28;20435;-83
2022/03/08 06:11:42;;;;;;;20.33;10.60;;;2.70;47.00;;;;;;4955924;28;20031;-78
2022/03/08 06:14:08;;;;;;;16.95;9.23;;;2.70;47.10;;;;;;4955545;29;20024;-78
2022/03/08 06:16:34;;;;;;;19.38;9.55;;;2.70;47.00;;;;;;4956075;29;20023;-75
2022/03/08 06:19:00;;;;;;;20.88;10.63;;;2.80;47.00;;;;;;4955664;29;20370;-78
2022/03/08 06:21:25;;;;;;;22.70;10.35;;;2.90;47.20;;;;;;4970787;28;20042;-81
2022/03/08 06:23:51;;;;;;;22.10;10.40;;;3.00;47.50;;;;;;4970360;28;20107;-76
2022/03/08 06:26:17;;;;;;;22.33;11.20;;;3.10;47.70;;;;;;4955786;28;20038;-76
2022/03/08 06:28:44;;;;;;;23.75;12.10;;;3.30;48.10;;;;;;4970850;28;20035;-81
2022/03/08 06:31:10;;;;;;;29.33;12.27;;;3.40;48.40;;;;;;4955110;28;20024;-79
2022/03/08 06:33:36;;;;;;;18.80;10.90;;;3.60;48.40;;;;;;4956300;28;20106;-76
2022/03/08 06:36:01;;;;;;;18.70;12.02;;;3.80;48.80;;;;;;4955629;29;20055;-74
2022/03/08 06:38:27;;;;;;;18.00;11.38;;;4.00;48.00;;;;;;4955999;28;20106;-78
2022/03/08 06:40:56;;;;;;;18.10;11.23;;;4.20;47.90;;;;;;4955531;29;20545;-81
2022/03/08 06:43:22;;;;;;;17.05;9.82;;;4.30;47.60;;;;;;4969854;28;20035;-77
2022/03/08 06:45:47;;;;;;;18.27;10.57;;;4.40;47.10;;;;;;4955427;28;20111;-76
2022/03/08 06:48:13;;;;;;;24.80;11.07;;;4.50;46.80;;;;;;4955692;29;20126;-78
2022/03/08 06:50:40;;;;;;;19.17;11.10;;;4.50;46.70;;;;;;4955409;28;20233;-81
2022/03/08 06:53:05;;;;;;;18.50;10.95;;;4.60;46.40;;;;;;4955586;29;20102;-79
2022/03/08 06:55:31;;;;;;;15.88;9.48;;;4.60;46.00;;;;;;4970638;28;20062;-78
2022/03/08 06:57:57;;;;;;;31.70;10.05;;;4.60;45.90;;;;;;4955313;28;20454;-77
2022/03/08 07:00:23;;;;;;;25.10;11.70;;;4.60;45.80;;;;;;4955286;29;20054;-81
2022/03/08 07:02:49;;;;;;;18.23;10.45;;;4.60;45.70;;;;;;4955523;28;20034;-77
2022/03/08 07:05:14;;;;;;;19.48;10.48;;;4.50;45.80;;;;;;4954579;28;20429;-79
2022/03/08 07:07:40;;;;;;;19.98;11.05;;;4.60;45.90;;;;;;4955100;29;20078;-80
2022/03/08 07:10:07;;;;;;;22.48;12.63;;;4.50;45.80;;;;;;4959843;28;20481;-76
2022/03/08 07:12:33;;;;;;;21.42;12.63;;;4.50;46.60;;;;;;4961399;28;20030;-77
2022/03/08 07:14:58;;;;;;;22.02;12.82;;;4.50;46.10;;;;;;4959329;29;20027;-77
2022/03/08 07:17:24;;;;;;;21.92;13.15;;;4.50;46.70;;;;;;4960416;28;20035;-81
2022/03/08 07:19:51;;;;;;;19.88;11.85;;;4.50;46.10;;;;;;4960585;29;20050;-75
2022/03/08 07:22:17;;;;;;;24.73;11.65;;;4.60;45.90;;;;;;4962087;28;20023;-77
2022/03/08 07:24:43;;;;;;;23.55;12.55;;;4.60;45.90;;;;;;4961369;28;20098;-80
2022/03/08 07:27:09;;;;;;;21.05;13.32;;;4.60;45.70;;;;;;4958074;28;20293;-78
2022/03/08 07:29:36;;;;;;;24.42;12.30;;;4.70;45.80;;;;;;4958386;29;20070;-77
2022/03/08 07:32:02;;;;;;;21.67;12.20;;;4.70;45.80;;;;;;4954561;29;20027;-78
2022/03/08 07:34:28;;;;;;;19.25;11.65;;;4.80;45.80;;;;;;4941330;28;20024;-81
2022/03/08 07:36:54;;;;;;;26.48;14.98;;;4.90;45.80;;;;;;4959532;28;20372;-78
2022/03/08 07:39:20;;;;;;;25.83;14.30;;;4.90;46.00;;;;;;4973092;28;20031;-78
2022/03/08 07:41:45;;;;;;;27.55;15.00;;;5.00;45.80;;;;;;4958212;28;20544;-75
2022/03/08 07:44:11;;;;;;;37.40;16.95;;;5.10;45.80;;;;;;4963966;28;20031;-74
2022/03/08 07:46:37;;;;;;;30.38;15.15;;;5.10;45.80;;;;;;4964953;28;20023;-81
2022/03/08 07:49:03;;;;;;;33.05;15.23;;;5.20;45.60;;;;;;4963299;28;20031;-81
2022/03/08 07:51:29;;;;;;;32.92;16.33;;;5.30;45.60;;;;;;4963043;28;20034;-76
2022/03/08 07:53:54;;;;;;;33.15;16.65;;;5.40;45.60;;;;;;4963648;28;20023;-79
2022/03/08 07:56:20;;;;;;;35.83;18.35;;;5.40;45.60;;;;;;4962390;29;20023;-78
2022/03/08 07:58:46;;;;;;;40.22;16.83;;;5.50;45.50;;;;;;4973561;28;20043;-72
2022/03/08 08:01:13;;;;;;;39.03;17.63;;;5.50;45.50;;;;;;4957605;28;20106;-82
2022/03/08 08:03:39;;;;;;;34.30;16.15;;;5.60;45.40;;;;;;4958694;28;20474;-73
2022/03/08 08:06:04;;;;;;;48.83;19.80;;;5.70;45.30;;;;;;4956012;28;20078;-81
2022/03/08 08:08:30;;;;;;;29.27;17.25;;;5.70;45.00;;;;;;4948680;28;20498;-77
2022/03/08 08:10:56;;;;;;;38.28;17.23;;;5.80;44.80;;;;;;4955337;29;20031;-77
2022/03/08 08:13:22;;;;;;;33.90;16.73;;;5.80;44.60;;;;;;4958489;28;20031;-76
2022/03/08 08:15:47;;;;;;;33.70;17.83;;;5.90;44.50;;;;;;4961994;28;20019;-74
2022/03/08 08:18:13;;;;;;;31.70;16.50;;;6.00;44.10;;;;;;4958836;28;20477;-80
2022/03/08 08:20:40;;;;;;;34.20;16.80;;;6.00;43.90;;;;;;4975767;28;20031;-76
2022/03/08 08:23:05;;;;;;;33.42;15.18;;;6.10;43.90;;;;;;4984575;28;20027;-82
2022/03/08 08:25:31;;;;;;;31.60;15.98;;;6.20;44.10;;;;;;4959148;29;20023;-81
2022/03/08 08:27:57;;;;;;;28.35;14.82;;;6.30;43.70;;;;;;4969030;28;20024;-81
2022/03/08 08:30:23;;;;;;;38.80;15.15;;;6.30;43.40;;;;;;4973578;28;20020;-76
2022/03/08 08:32:50;;;;;;;28.45;16.35;;;6.40;43.20;;;;;;4958774;28;20110;-79
2022/03/08 08:35:18;;;;;;;33.88;15.52;;;6.50;42.80;;;;;;4973513;28;20023;-76
2022/03/08 08:37:44;;;;;;;29.77;16.63;;;6.50;42.70;;;;;;4960000;28;20038;-81
2022/03/08 08:40:11;;;;;;;28.50;15.38;;;6.60;42.60;;;;;;4966604;28;20031;-81
2022/03/08 08:42:37;;;;;;;32.38;15.25;;;6.60;42.40;;;;;;4957219;28;20019;-81
2022/03/08 08:45:04;;;;;;;32.47;17.42;;;6.70;42.50;;;;;;4956901;28;20031;-80
2022/03/08 08:47:30;;;;;;;32.90;15.43;;;6.70;42.20;;;;;;4950313;28;20243;-77
2022/03/08 08:49:56;;;;;;;28.95;14.70;;;6.80;42.20;;;;;;4944043;28;20023;-81
2022/03/08 08:52:21;;;;;;;30.80;16.80;;;6.80;42.20;;;;;;4976085;28;20030;-77
2022/03/08 08:54:48;;;;;;;28.98;16.40;;;6.90;42.10;;;;;;4966773;28;20023;-76
2022/03/08 08:57:14;;;;;;;29.80;14.98;;;6.90;41.90;;;;;;4968246;28;20066;-85
2022/03/08 08:59:40;;;;;;;22.30;12.98;;;7.00;41.90;;;;;;4991736;28;20031;-75
2022/03/08 09:02:07;;;;;;;25.73;14.05;;;7.10;41.90;;;;;;4959157;28;20102;-81
2022/03/08 09:04:34;;;;;;;34.83;15.30;;;7.10;41.90;;;;;;4956727;28;20023;-77
2022/03/08 09:07:00;;;;;;;27.40;13.80;;;7.20;41.80;;;;;;4957440;28;20425;-86
2022/03/08 09:09:26;;;;;;;21.75;12.40;;;7.20;41.80;;;;;;4951252;29;20024;-78
2022/03/08 09:11:52;;;;;;;22.73;11.98;;;7.30;41.80;;;;;;4970348;28;20074;-80
2022/03/08 09:14:18;;;;;;;22.02;13.27;;;7.40;41.80;;;;;;4975291;28;20424;-79
2022/03/08 09:16:44;;;;;;;30.42;13.77;;;7.50;41.80;;;;;;4952227;28;20414;-79
2022/03/08 09:19:10;;;;;;;25.60;13.50;;;7.50;41.80;;;;;;4948645;29;20031;-78
2022/03/08 09:21:37;;;;;;;25.42;14.45;;;7.60;41.60;;;;;;4983113;28;20397;-82
2022/03/08 09:24:03;;;;;;;23.15;12.48;;;7.70;41.50;;;;;;4957328;28;20027;-76
2022/03/08 09:26:29;;;;;;;21.58;12.98;;;7.80;41.40;;;;;;4939233;29;20019;-80
2022/03/08 09:28:54;;;;;;;29.20;14.18;;;7.90;41.40;;;;;;4948948;28;20307;-80
2022/03/08 09:31:20;;;;;;;24.60;13.65;;;7.90;41.10;;;;;;4959640;28;20027;-80
2022/03/08 09:33:46;;;;;;;23.08;13.93;;;8.00;40.80;;;;;;4954533;28;20467;-76
2022/03/08 09:36:12;;;;;;;19.30;12.50;;;8.10;40.50;;;;;;4967248;28;20032;-83
2022/03/08 09:38:38;;;;;;;25.73;14.68;;;8.10;40.50;;;;;;4956607;28;20027;-81
2022/03/08 09:41:05;;;;;;;23.85;14.05;;;8.20;40.20;;;;;;4955363;28;20028;-82
2022/03/08 09:43:35;;;;;;;27.02;12.38;;;8.30;40.20;;;;;;4956329;29;20102;-79
2022/03/08 09:46:01;;;;;;;19.27;12.10;;;8.30;40.00;;;;;;4955796;28;20027;-78
2022/03/08 09:48:28;;;;;;;19.75;11.73;;;8.40;39.90;;;;;;4955836;28;20070;-83
2022/03/08 09:50:53;;;;;;;23.38;12.82;;;8.50;40.10;;;;;;4974305;28;20026;-75
2022/03/08 09:53:19;;;;;;;19.33;12.40;;;8.60;40.00;;;;;;4958162;28;20031;-76
2022/03/08 09:55:45;;;;;;;17.88;10.55;;;8.70;39.70;;;;;;4955028;28;20035;-79
2022/03/08 09:58:11;;;;;;;19.55;11.30;;;8.70;39.50;;;;;;4955831;28;20059;-81
2022/03/08 10:00:37;;;;;;;18.90;11.35;;;8.80;39.50;;;;;;4954024;28;20035;-81
2022/03/08 10:03:10;;;;;;;22.88;11.95;;;8.90;39.30;;;;;;4958212;28;20037;-80
2022/03/08 10:05:43;;;;;;;24.23;11.68;;;9.00;39.20;;;;;;4970179;28;20134;-80
2022/03/08 10:08:21;;;;;;;24.60;12.55;;;9.10;38.90;;;;;;4955577;29;20028;-80
2022/03/08 10:11:05;;;;;;;21.05;12.93;;;9.20;38.60;;;;;;4946964;29;20082;-80
2022/03/08 10:13:35;;;;;;;23.23;13.43;;;9.20;38.60;;;;;;4955584;29;20029;-83
2022/03/08 10:16:22;;;;;;;23.90;12.63;;;9.20;38.40;;;;;;4956784;28;20023;-79
2022/03/08 10:19:03;;;;;;;16.85;9.55;;;9.30;38.20;;;;;;4970127;28;20059;-81
2022/03/08 10:21:34;;;;;;;16.83;11.20;;;9.40;38.40;;;;;;4948381;28;20023;-76
2022/03/08 10:24:15;;;;;;;18.35;10.65;;;9.50;38.40;;;;;;4954815;28;20086;-85
2022/03/08 10:26:55;;;;;;;17.95;10.55;;;9.60;38.10;;;;;;4955638;28;20034;-79
2022/03/08 10:29:28;;;;;;;15.43;9.10;;;9.70;37.40;;;;;;4955647;28;20027;-77
2022/03/08 10:32:16;;;;;;;17.38;8.52;;;9.80;37.20;;;;;;4954110;28;20031;-75
2022/03/08 10:34:43;;;;;;;15.27;9.45;;;9.80;37.30;;;;;;4968327;28;20027;-77
2022/03/08 10:37:14;;;;;;;17.73;9.90;;;9.80;37.20;;;;;;4954904;28;20028;-78
2022/03/08 10:39:51;;;;;;;17.15;10.18;;;9.90;36.90;;;;;;4954589;29;20098;-79
2022/03/08 10:42:24;;;;;;;16.73;10.00;;;9.90;36.40;;;;;;4968660;28;20027;-76
2022/03/08 10:44:51;;;;;;;20.15;8.93;;;9.90;36.20;;;;;;4955075;28;20034;-76
2022/03/08 10:47:17;;;;;;;14.68;8.38;;;9.90;36.30;;;;;;4954350;28;20031;-77
2022/03/08 10:49:53;;;;;;;15.32;8.27;;;10.00;36.00;;;;;;4954390;28;20083;-78
2022/03/08 10:52:28;;;;;;;16.27;7.97;;;10.00;36.10;;;;;;4953309;28;20023;-79
2022/03/08 10:54:54;;;;;;;15.27;8.32;;;10.10;36.10;;;;;;4954847;28;20074;-78
2022/03/08 10:57:20;;;;;;;18.17;8.23;;;10.10;35.50;;;;;;4954731;28;20050;-77
2022/03/08 10:59:55;;;;;;;17.38;8.73;;;10.20;35.40;;;;;;4943934;28;20366;-76
2022/03/08 11:02:23;;;;;;;15.00;7.97;;;10.30;35.30;;;;;;4942743;29;20509;-77
2022/03/08 11:05:09;;;;;;;14.65;6.90;;;10.60;35.80;;;;;;4963905;28;20086;-77
2022/03/08 11:07:38;;;;;;;14.20;6.40;;;10.80;34.90;;;;;;4966621;28;20114;-78
2022/03/08 11:10:08;;;;;;;13.30;6.20;;;11.00;34.60;;;;;;4980027;28;20032;-79
2022/03/08 11:12:34;;;;;;;13.30;6.05;;;11.30;34.00;;;;;;4954867;29;20091;-77
2022/03/08 11:15:01;;;;;;;10.77;6.13;;;11.60;34.20;;;;;;4966013;28;20034;-76
2022/03/08 11:17:28;;;;;;;11.57;6.00;;;11.80;33.70;;;;;;4975433;28;20500;-78
2022/03/08 11:19:57;;;;;;;14.10;7.43;;;12.00;32.90;;;;;;4958741;28;20031;-75
2022/03/08 11:22:23;;;;;;;15.32;7.55;;;12.10;32.70;;;;;;4957875;29;20536;-77
2022/03/08 11:24:54;;;;;;;13.70;6.50;;;12.30;32.80;;;;;;4973598;28;20118;-78
2022/03/08 11:27:22;;;;;;;13.77;7.50;;;12.40;32.30;;;;;;4977800;28;20571;-77
2022/03/08 11:29:52;;;;;;;13.40;8.13;;;12.60;31.70;;;;;;4978533;28;20033;-76
2022/03/08 11:32:30;;;;;;;12.77;7.63;;;12.80;31.10;;;;;;4972607;28;20370;-76
2022/03/08 11:35:08;;;;;;;17.95;8.43;;;12.90;30.30;;;;;;4955808;28;20074;-78
2022/03/08 11:37:37;;;;;;;15.85;7.65;;;12.90;29.90;;;;;;4949192;29;20027;-78
2022/03/08 11:40:08;;;;;;;13.48;7.95;;;12.90;30.00;;;;;;4943804;28;20120;-79
2022/03/08 11:42:37;;;;;;;14.13;7.32;;;12.90;29.90;;;;;;4966480;28;20027;-78
2022/03/08 11:45:11;;;;;;;10.27;6.80;;;12.80;29.70;;;;;;4958207;29;20078;-80
2022/03/08 11:47:46;;;;;;;14.93;7.88;;;12.80;30.00;;;;;;4973109;28;20474;-76
2022/03/08 11:50:22;;;;;;;13.52;7.43;;;12.80;29.80;;;;;;4955350;28;20035;-78
2022/03/08 11:53:15;;;;;;;11.52;6.50;;;12.70;29.80;;;;;;4962651;28;20029;-79
2022/03/08 11:55:44;;;;;;;11.70;6.88;;;12.60;30.00;;;;;;4951429;29;20042;-79
2022/03/08 11:58:15;;;;;;;15.55;7.30;;;12.50;30.00;;;;;;4938596;29;20051;-78
2022/03/08 12:00:56;;;;;;;16.98;7.05;;;12.40;30.10;;;;;;4956076;29;20106;-75
2022/03/08 12:03:28;;;;;;;13.52;6.97;;;12.30;30.00;;;;;;4956816;28;20031;-78
2022/03/08 12:06:12;;;;;;;11.90;6.82;;;12.20;30.00;;;;;;4954088;28;20552;-75
2022/03/08 12:08:45;;;;;;;11.85;6.55;;;12.10;30.20;;;;;;4955746;29;20039;-78
2022/03/08 12:11:28;;;;;;;11.63;6.40;;;12.00;30.20;;;;;;4955856;29;20370;-79
2022/03/08 12:14:36;;;;;;;14.30;7.18;;;11.90;30.30;;;;;;4956359;28;20078;-79
2022/03/08 12:17:12;;;;;;;11.40;6.43;;;11.90;30.60;;;;;;4966627;28;20392;-80
2022/03/08 12:19:41;;;;;;;11.82;6.60;;;11.80;30.40;;;;;;4969494;28;20031;-79
2022/03/08 12:22:13;;;;;;;11.93;6.13;;;11.80;30.30;;;;;;4969018;28;20031;-77
2022/03/08 12:24:47;;;;;;;13.68;6.28;;;11.80;30.70;;;;;;4944826;28;20077;-77
2022/03/08 12:27:13;;;;;;;13.32;6.53;;;11.80;31.00;;;;;;4955122;28;20023;-78
2022/03/08 12:29:53;;;;;;;14.07;6.90;;;11.80;31.00;;;;;;4955094;28;20038;-77
2022/03/08 12:32:22;;;;;;;12.82;7.18;;;11.80;30.50;;;;;;4939088;29;20039;-79
2022/03/08 12:34:50;;;;;;;12.80;7.55;;;11.80;30.80;;;;;;4955006;29;20023;-77
2022/03/08 12:37:19;;;;;;;11.90;6.70;;;11.70;30.50;;;;;;4938692;29;20070;-78
2022/03/08 12:39:52;;;;;;;11.32;7.13;;;11.70;30.60;;;;;;4954936;29;20389;-79